sensor_id;sensor_type;location;lat;lon;timestamp;temperature;humidity
827;DHT22;395;48.132;11.608;2023-04-01T00:00:58;10.10;1.00
827;DHT22;395;48.132;11.608;2023-04-01T00:03:25;10.10;1.00
827;DHT22;395;48.132;11.608;2023-04-01T00:05:53;10.00;1.00
827;DHT22;395;48.132;11.608;2023-04-01T00:08:19;9.90;1.00
827;DHT22;395;48.132;11.608;2023-04-01T00:10:44;10.00;1.00
827;DHT22;395;48.132;11.608;2023-04-01T00:13:11;10.00;1.00
827;DHT22;395;48.132;11.608;2023-04-01T00:15:37;10.00;1.00
827;DHT22;395;48.132;11.608;2023-04-01T00:18:03;9.90;1.00
827;DHT22;395;48.132;11.608;2023-04-01T00:20:29;9.90;1.00
827;DHT22;395;48.132;11.608;2023-04-01T00:22:55;9.90;1.00
827;DHT22;395;48.132;11.608;2023-04-01T00:25:20;9.90;1.00
827;DHT22;395;48.132;11.608;2023-04-01T00:27:46;9.90;1.00
827;DHT22;395;48.132;11.608;2023-04-01T00:30:12;9.90;1.00
827;DHT22;395;48.132;11.608;2023-04-01T00:32:38;9.90;1.00
827;DHT22;395;48.132;11.608;2023-04-01T00:35:04;10.00;1.00
827;DHT22;395;48.132;11.608;2023-04-01T00:37:30;10.00;1.00
827;DHT22;395;48.132;11.608;2023-04-01T00:39:56;10.00;1.00
827;DHT22;395;48.132;11.608;2023-04-01T00:42:22;10.00;1.00
827;DHT22;395;48.132;11.608;2023-04-01T00:44:51;10.00;1.00
827;DHT22;395;48.132;11.608;2023-04-01T00:47:17;10.00;1.00
827;DHT22;395;48.132;11.608;2023-04-01T00:49:48;10.10;1.00
827;DHT22;395;48.132;11.608;2023-04-01T00:52:17;10.10;1.00
827;DHT22;395;48.132;11.608;2023-04-01T00:54:46;10.20;1.00
827;DHT22;395;48.132;11.608;2023-04-01T00:57:23;10.10;1.00
827;DHT22;395;48.132;11.608;2023-04-01T00:59:52;10.10;1.00
827;DHT22;395;48.132;11.608;2023-04-01T01:02:19;10.10;1.00
827;DHT22;395;48.132;11.608;2023-04-01T01:04:45;10.10;1.00
827;DHT22;395;48.132;11.608;2023-04-01T01:10:03;10.10;1.00
827;DHT22;395;48.132;11.608;2023-04-01T01:13:17;9.90;1.00
827;DHT22;395;48.132;11.608;2023-04-01T01:15:44;10.00;1.00
827;DHT22;395;48.132;11.608;2023-04-01T01:24:09;10.00;1.00
827;DHT22;395;48.132;11.608;2023-04-01T01:27:02;9.90;1.00
827;DHT22;395;48.132;11.608;2023-04-01T01:32:52;9.80;1.00
827;DHT22;395;48.132;11.608;2023-04-01T01:35:28;9.80;1.00
827;DHT22;395;48.132;11.608;2023-04-01T01:38:05;9.80;1.00
827;DHT22;395;48.132;11.608;2023-04-01T01:40:33;9.80;1.00
827;DHT22;395;48.132;11.608;2023-04-01T01:43:04;9.80;1.00
827;DHT22;395;48.132;11.608;2023-04-01T01:45:32;9.80;1.00
827;DHT22;395;48.132;11.608;2023-04-01T01:48:00;9.90;1.00
827;DHT22;395;48.132;11.608;2023-04-01T01:50:27;9.90;1.00
827;DHT22;395;48.132;11.608;2023-04-01T01:53:01;10.00;1.00
827;DHT22;395;48.132;11.608;2023-04-01T01:55:34;10.00;1.00
827;DHT22;395;48.132;11.608;2023-04-01T01:58:07;10.00;1.00
827;DHT22;395;48.132;11.608;2023-04-01T02:00:35;10.00;1.00
827;DHT22;395;48.132;11.608;2023-04-01T02:03:01;9.90;1.00
827;DHT22;395;48.132;11.608;2023-04-01T02:05:28;9.90;1.00
827;DHT22;395;48.132;11.608;2023-04-01T02:08:18;9.90;1.00
827;DHT22;395;48.132;11.608;2023-04-01T02:11:01;9.80;1.00
827;DHT22;395;48.132;11.608;2023-04-01T02:13:34;9.80;1.00
827;DHT22;395;48.132;11.608;2023-04-01T02:16:06;9.70;1.00
827;DHT22;395;48.132;11.608;2023-04-01T02:18:36;9.50;1.00
827;DHT22;395;48.132;11.608;2023-04-01T02:21:03;9.60;1.00
827;DHT22;395;48.132;11.608;2023-04-01T02:23:32;9.50;1.00
827;DHT22;395;48.132;11.608;2023-04-01T02:25:59;9.60;1.00
827;DHT22;395;48.132;11.608;2023-04-01T02:28:25;9.70;1.00
827;DHT22;395;48.132;11.608;2023-04-01T02:30:52;9.70;1.00
827;DHT22;395;48.132;11.608;2023-04-01T02:33:19;9.60;1.00
827;DHT22;395;48.132;11.608;2023-04-01T02:35:45;9.60;1.00
827;DHT22;395;48.132;11.608;2023-04-01T02:38:11;9.60;1.00
827;DHT22;395;48.132;11.608;2023-04-01T02:40:46;9.50;1.00
827;DHT22;395;48.132;11.608;2023-04-01T02:43:12;9.50;1.00
827;DHT22;395;48.132;11.608;2023-04-01T02:45:38;9.60;1.00
827;DHT22;395;48.132;11.608;2023-04-01T02:48:04;9.60;1.00
827;DHT22;395;48.132;11.608;2023-04-01T02:50:29;9.60;1.00
827;DHT22;395;48.132;11.608;2023-04-01T02:52:55;9.60;1.00
827;DHT22;395;48.132;11.608;2023-04-01T02:55:21;9.60;1.00
827;DHT22;395;48.132;11.608;2023-04-01T02:57:47;9.60;1.00
827;DHT22;395;48.132;11.608;2023-04-01T03:00:13;9.60;1.00
827;DHT22;395;48.132;11.608;2023-04-01T03:02:39;9.60;1.00
827;DHT22;395;48.132;11.608;2023-04-01T03:05:05;9.50;1.00
827;DHT22;395;48.132;11.608;2023-04-01T03:07:31;9.60;1.00
827;DHT22;395;48.132;11.608;2023-04-01T03:09:57;9.60;1.00
827;DHT22;395;48.132;11.608;2023-04-01T03:12:22;9.60;1.00
827;DHT22;395;48.132;11.608;2023-04-01T03:14:48;9.60;1.00
827;DHT22;395;48.132;11.608;2023-04-01T03:17:14;9.50;1.00
827;DHT22;395;48.132;11.608;2023-04-01T03:19:40;9.60;1.00
827;DHT22;395;48.132;11.608;2023-04-01T03:22:06;9.70;1.00
827;DHT22;395;48.132;11.608;2023-04-01T03:24:31;9.70;1.00
827;DHT22;395;48.132;11.608;2023-04-01T03:26:57;9.60;1.00
827;DHT22;395;48.132;11.608;2023-04-01T03:29:22;9.70;1.00
827;DHT22;395;48.132;11.608;2023-04-01T03:31:48;9.70;1.00
827;DHT22;395;48.132;11.608;2023-04-01T03:34:14;9.60;1.00
827;DHT22;395;48.132;11.608;2023-04-01T03:36:39;9.60;1.00
827;DHT22;395;48.132;11.608;2023-04-01T03:39:05;9.70;1.00
827;DHT22;395;48.132;11.608;2023-04-01T03:41:32;9.70;1.00
827;DHT22;395;48.132;11.608;2023-04-01T03:43:57;9.70;1.00
827;DHT22;395;48.132;11.608;2023-04-01T03:46:23;9.70;1.00
827;DHT22;395;48.132;11.608;2023-04-01T03:48:48;9.60;1.00
827;DHT22;395;48.132;11.608;2023-04-01T03:51:14;9.50;1.00
827;DHT22;395;48.132;11.608;2023-04-01T03:53:40;9.40;1.00
827;DHT22;395;48.132;11.608;2023-04-01T03:56:06;9.30;1.00
827;DHT22;395;48.132;11.608;2023-04-01T03:58:33;9.20;1.00
827;DHT22;395;48.132;11.608;2023-04-01T04:00:58;9.30;1.00
827;DHT22;395;48.132;11.608;2023-04-01T04:03:24;9.40;1.00
827;DHT22;395;48.132;11.608;2023-04-01T04:05:50;9.40;1.00
827;DHT22;395;48.132;11.608;2023-04-01T04:08:16;9.30;1.00
827;DHT22;395;48.132;11.608;2023-04-01T04:10:42;9.20;1.00
827;DHT22;395;48.132;11.608;2023-04-01T04:13:08;9.30;1.00
827;DHT22;395;48.132;11.608;2023-04-01T04:15:34;9.30;1.00
827;DHT22;395;48.132;11.608;2023-04-01T04:17:59;9.30;1.00
827;DHT22;395;48.132;11.608;2023-04-01T04:20:25;9.30;1.00
827;DHT22;395;48.132;11.608;2023-04-01T04:22:50;9.30;1.00
827;DHT22;395;48.132;11.608;2023-04-01T04:25:16;9.30;1.00
827;DHT22;395;48.132;11.608;2023-04-01T04:27:42;9.30;1.00
827;DHT22;395;48.132;11.608;2023-04-01T04:30:08;9.30;1.00
827;DHT22;395;48.132;11.608;2023-04-01T04:32:34;9.30;1.00
827;DHT22;395;48.132;11.608;2023-04-01T04:35:00;9.30;1.00
827;DHT22;395;48.132;11.608;2023-04-01T04:37:26;9.40;1.00
827;DHT22;395;48.132;11.608;2023-04-01T04:39:52;9.40;1.00
827;DHT22;395;48.132;11.608;2023-04-01T04:42:18;9.30;1.00
827;DHT22;395;48.132;11.608;2023-04-01T04:44:43;9.30;1.00
827;DHT22;395;48.132;11.608;2023-04-01T04:47:09;9.40;1.00
827;DHT22;395;48.132;11.608;2023-04-01T04:49:34;9.40;1.00
827;DHT22;395;48.132;11.608;2023-04-01T04:52:00;9.40;1.00
827;DHT22;395;48.132;11.608;2023-04-01T04:54:26;9.40;1.00
827;DHT22;395;48.132;11.608;2023-04-01T04:56:52;9.50;1.00
827;DHT22;395;48.132;11.608;2023-04-01T04:59:18;9.60;1.00
827;DHT22;395;48.132;11.608;2023-04-01T05:01:43;9.60;1.00
827;DHT22;395;48.132;11.608;2023-04-01T05:04:09;9.50;1.00
827;DHT22;395;48.132;11.608;2023-04-01T05:06:35;9.60;1.00
827;DHT22;395;48.132;11.608;2023-04-01T05:09:01;9.60;1.00
827;DHT22;395;48.132;11.608;2023-04-01T05:11:26;9.60;1.00
827;DHT22;395;48.132;11.608;2023-04-01T05:13:52;9.50;1.00
827;DHT22;395;48.132;11.608;2023-04-01T05:16:19;9.60;1.00
827;DHT22;395;48.132;11.608;2023-04-01T05:18:46;9.60;1.00
827;DHT22;395;48.132;11.608;2023-04-01T05:21:13;9.60;1.00
827;DHT22;395;48.132;11.608;2023-04-01T05:23:39;9.60;1.00
827;DHT22;395;48.132;11.608;2023-04-01T05:26:06;9.60;1.00
827;DHT22;395;48.132;11.608;2023-04-01T05:28:32;9.60;1.00
827;DHT22;395;48.132;11.608;2023-04-01T05:30:59;9.50;1.00
827;DHT22;395;48.132;11.608;2023-04-01T05:33:26;9.50;1.00
827;DHT22;395;48.132;11.608;2023-04-01T05:35:53;9.50;1.00
827;DHT22;395;48.132;11.608;2023-04-01T05:38:19;9.50;1.00
827;DHT22;395;48.132;11.608;2023-04-01T05:40:44;9.60;1.00
827;DHT22;395;48.132;11.608;2023-04-01T05:43:11;9.60;1.00
827;DHT22;395;48.132;11.608;2023-04-01T05:45:36;9.60;1.00
827;DHT22;395;48.132;11.608;2023-04-01T05:48:02;9.70;1.00
827;DHT22;395;48.132;11.608;2023-04-01T05:50:28;9.60;1.00
827;DHT22;395;48.132;11.608;2023-04-01T05:52:54;9.60;1.00
827;DHT22;395;48.132;11.608;2023-04-01T05:55:20;9.50;1.00
827;DHT22;395;48.132;11.608;2023-04-01T05:57:46;9.50;1.00
827;DHT22;395;48.132;11.608;2023-04-01T06:00:13;9.50;1.00
827;DHT22;395;48.132;11.608;2023-04-01T06:02:40;9.50;1.00
827;DHT22;395;48.132;11.608;2023-04-01T06:05:23;9.60;1.00
827;DHT22;395;48.132;11.608;2023-04-01T06:07:53;9.50;1.00
827;DHT22;395;48.132;11.608;2023-04-01T06:10:21;9.60;1.00
827;DHT22;395;48.132;11.608;2023-04-01T06:13:17;9.70;1.00
827;DHT22;395;48.132;11.608;2023-04-01T06:16:10;9.70;1.00
827;DHT22;395;48.132;11.608;2023-04-01T06:26:39;9.80;1.00
827;DHT22;395;48.132;11.608;2023-04-01T06:32:30;9.70;1.00
827;DHT22;395;48.132;11.608;2023-04-01T06:54:24;9.60;1.00
827;DHT22;395;48.132;11.608;2023-04-01T06:56:58;9.70;1.00
827;DHT22;395;48.132;11.608;2023-04-01T06:59:30;9.70;1.00
827;DHT22;395;48.132;11.608;2023-04-01T07:02:19;9.70;1.00
827;DHT22;395;48.132;11.608;2023-04-01T07:04:50;9.90;1.00
827;DHT22;395;48.132;11.608;2023-04-01T07:09:50;9.80;1.00
827;DHT22;395;48.132;11.608;2023-04-01T07:15:09;10.00;1.00
827;DHT22;395;48.132;11.608;2023-04-01T07:17:39;10.00;1.00
827;DHT22;395;48.132;11.608;2023-04-01T07:22:52;10.00;1.00
827;DHT22;395;48.132;11.608;2023-04-01T07:25:24;9.90;1.00
827;DHT22;395;48.132;11.608;2023-04-01T07:27:53;10.00;1.00
827;DHT22;395;48.132;11.608;2023-04-01T07:30:22;10.00;1.00
827;DHT22;395;48.132;11.608;2023-04-01T07:35:34;10.00;1.00
827;DHT22;395;48.132;11.608;2023-04-01T07:38:30;10.00;1.00
827;DHT22;395;48.132;11.608;2023-04-01T07:55:08;10.10;1.00
827;DHT22;395;48.132;11.608;2023-04-01T07:57:38;10.20;1.00
827;DHT22;395;48.132;11.608;2023-04-01T08:00:20;10.30;1.00
827;DHT22;395;48.132;11.608;2023-04-01T08:06:03;10.50;1.00
827;DHT22;395;48.132;11.608;2023-04-01T08:08:47;10.50;1.00
827;DHT22;395;48.132;11.608;2023-04-01T08:16:38;10.60;1.00
827;DHT22;395;48.132;11.608;2023-04-01T08:21:52;10.40;1.00
827;DHT22;395;48.132;11.608;2023-04-01T08:24:29;10.40;1.00
827;DHT22;395;48.132;11.608;2023-04-01T08:27:03;10.50;1.00
827;DHT22;395;48.132;11.608;2023-04-01T08:29:48;10.50;1.00
827;DHT22;395;48.132;11.608;2023-04-01T08:32:18;10.50;1.00
827;DHT22;395;48.132;11.608;2023-04-01T08:34:54;10.60;1.00
827;DHT22;395;48.132;11.608;2023-04-01T08:37:28;10.60;1.00
827;DHT22;395;48.132;11.608;2023-04-01T08:48:27;10.80;1.00
827;DHT22;395;48.132;11.608;2023-04-01T09:00:19;10.80;1.00
827;DHT22;395;48.132;11.608;2023-04-01T09:03:34;10.70;1.00
827;DHT22;395;48.132;11.608;2023-04-01T09:05:47;10.80;1.00
827;DHT22;395;48.132;11.608;2023-04-01T09:11:12;11.00;1.00
827;DHT22;395;48.132;11.608;2023-04-01T09:13:51;11.00;1.00
827;DHT22;395;48.132;11.608;2023-04-01T09:19:21;10.90;1.00
827;DHT22;395;48.132;11.608;2023-04-01T09:27:27;11.10;1.00
827;DHT22;395;48.132;11.608;2023-04-01T09:30:23;11.20;1.00
827;DHT22;395;48.132;11.608;2023-04-01T09:36:04;11.20;1.00
827;DHT22;395;48.132;11.608;2023-04-01T09:44:15;11.60;1.00
827;DHT22;395;48.132;11.608;2023-04-01T10:11:01;12.00;1.00
827;DHT22;395;48.132;11.608;2023-04-01T10:24:49;11.90;1.00
827;DHT22;395;48.132;11.608;2023-04-01T10:55:19;11.90;1.00
827;DHT22;395;48.132;11.608;2023-04-01T11:17:57;11.90;1.00
827;DHT22;395;48.132;11.608;2023-04-01T11:23:50;11.80;1.00
827;DHT22;395;48.132;11.608;2023-04-01T11:31:35;11.70;1.00
827;DHT22;395;48.132;11.608;2023-04-01T11:34:24;11.70;1.00
827;DHT22;395;48.132;11.608;2023-04-01T11:48:13;11.40;1.00
827;DHT22;395;48.132;11.608;2023-04-01T11:56:41;11.10;1.00
827;DHT22;395;48.132;11.608;2023-04-01T11:59:44;11.10;1.00
827;DHT22;395;48.132;11.608;2023-04-01T12:05:04;11.10;1.00
827;DHT22;395;48.132;11.608;2023-04-01T12:07:45;11.00;1.00
827;DHT22;395;48.132;11.608;2023-04-01T12:10:22;11.10;1.00
827;DHT22;395;48.132;11.608;2023-04-01T12:13:28;11.00;1.00
827;DHT22;395;48.132;11.608;2023-04-01T12:16:11;10.90;1.00
827;DHT22;395;48.132;11.608;2023-04-01T12:21:14;10.90;1.00
827;DHT22;395;48.132;11.608;2023-04-01T12:23:54;10.80;1.00
827;DHT22;395;48.132;11.608;2023-04-01T12:29:12;10.80;1.00
827;DHT22;395;48.132;11.608;2023-04-01T12:34:43;10.80;1.00
827;DHT22;395;48.132;11.608;2023-04-01T12:40:23;10.80;1.00
827;DHT22;395;48.132;11.608;2023-04-01T12:55:59;10.90;1.00
827;DHT22;395;48.132;11.608;2023-04-01T13:01:28;10.90;1.00
827;DHT22;395;48.132;11.608;2023-04-01T13:13:05;10.70;1.00
827;DHT22;395;48.132;11.608;2023-04-01T13:23:39;10.70;1.00
827;DHT22;395;48.132;11.608;2023-04-01T13:34:25;10.70;1.00
827;DHT22;395;48.132;11.608;2023-04-01T13:42:30;10.60;1.00
827;DHT22;395;48.132;11.608;2023-04-01T13:47:49;10.80;1.00
827;DHT22;395;48.132;11.608;2023-04-01T13:56:49;10.70;1.00
827;DHT22;395;48.132;11.608;2023-04-01T14:02:29;10.60;1.10
827;DHT22;395;48.132;11.608;2023-04-01T14:19:24;10.70;1.00
827;DHT22;395;48.132;11.608;2023-04-01T14:22:04;10.70;1.70
827;DHT22;395;48.132;11.608;2023-04-01T14:39:08;10.50;1.00
827;DHT22;395;48.132;11.608;2023-04-01T14:50:12;10.50;1.50
827;DHT22;395;48.132;11.608;2023-04-01T14:52:42;10.70;1.80
827;DHT22;395;48.132;11.608;2023-04-01T14:58:16;10.50;2.50
827;DHT22;395;48.132;11.608;2023-04-01T15:01:00;10.60;3.10
827;DHT22;395;48.132;11.608;2023-04-01T15:17:31;10.80;2.30
827;DHT22;395;48.132;11.608;2023-04-01T15:20:19;10.90;1.00
827;DHT22;395;48.132;11.608;2023-04-01T15:32:19;10.70;1.00
827;DHT22;395;48.132;11.608;2023-04-01T15:35:31;10.60;1.00
827;DHT22;395;48.132;11.608;2023-04-01T15:43:50;10.80;1.00
827;DHT22;395;48.132;11.608;2023-04-01T15:46:46;10.70;1.00
827;DHT22;395;48.132;11.608;2023-04-01T15:55:05;10.70;1.00
827;DHT22;395;48.132;11.608;2023-04-01T16:00:33;10.80;1.00
827;DHT22;395;48.132;11.608;2023-04-01T16:03:16;10.90;1.00
827;DHT22;395;48.132;11.608;2023-04-01T16:06:24;10.90;1.00
827;DHT22;395;48.132;11.608;2023-04-01T16:09:11;10.80;1.00
827;DHT22;395;48.132;11.608;2023-04-01T16:11:41;10.90;1.00
827;DHT22;395;48.132;11.608;2023-04-01T16:22:05;10.80;1.00
827;DHT22;395;48.132;11.608;2023-04-01T16:27:41;10.80;1.00
827;DHT22;395;48.132;11.608;2023-04-01T16:33:02;10.80;1.00
827;DHT22;395;48.132;11.608;2023-04-01T16:39:06;10.90;1.00
827;DHT22;395;48.132;11.608;2023-04-01T16:41:48;11.00;1.00
827;DHT22;395;48.132;11.608;2023-04-01T16:44:23;11.10;1.00
827;DHT22;395;48.132;11.608;2023-04-01T16:49:31;11.10;1.00
827;DHT22;395;48.132;11.608;2023-04-01T16:54:56;11.10;1.00
827;DHT22;395;48.132;11.608;2023-04-01T17:03:08;10.90;1.00
827;DHT22;395;48.132;11.608;2023-04-01T17:17:37;10.80;1.00
827;DHT22;395;48.132;11.608;2023-04-01T17:25:37;10.70;1.00
827;DHT22;395;48.132;11.608;2023-04-01T17:33:53;10.80;1.00
827;DHT22;395;48.132;11.608;2023-04-01T17:42:15;10.80;1.00
827;DHT22;395;48.132;11.608;2023-04-01T17:54:04;10.90;1.00
827;DHT22;395;48.132;11.608;2023-04-01T17:56:45;10.90;1.00
827;DHT22;395;48.132;11.608;2023-04-01T17:59:35;10.90;1.00
827;DHT22;395;48.132;11.608;2023-04-01T18:29:40;10.80;1.00
827;DHT22;395;48.132;11.608;2023-04-01T18:34:58;10.90;1.00
827;DHT22;395;48.132;11.608;2023-04-01T18:37:55;10.80;1.00
827;DHT22;395;48.132;11.608;2023-04-01T18:40:29;10.70;1.00
827;DHT22;395;48.132;11.608;2023-04-01T18:45:45;10.60;1.00
827;DHT22;395;48.132;11.608;2023-04-01T18:55:17;10.70;1.00
827;DHT22;395;48.132;11.608;2023-04-01T18:57:16;10.80;1.00
827;DHT22;395;48.132;11.608;2023-04-01T18:59:49;10.80;1.00
827;DHT22;395;48.132;11.608;2023-04-01T19:02:30;10.80;1.00
827;DHT22;395;48.132;11.608;2023-04-01T19:07:45;10.90;1.00
827;DHT22;395;48.132;11.608;2023-04-01T19:12:59;10.90;1.00
827;DHT22;395;48.132;11.608;2023-04-01T19:15:50;10.90;1.00
827;DHT22;395;48.132;11.608;2023-04-01T19:24:14;10.90;1.00
827;DHT22;395;48.132;11.608;2023-04-01T19:26:46;10.90;1.00
827;DHT22;395;48.132;11.608;2023-04-01T19:38:14;10.90;1.00
827;DHT22;395;48.132;11.608;2023-04-01T20:01:00;10.70;1.00
827;DHT22;395;48.132;11.608;2023-04-01T20:03:46;10.60;1.00
827;DHT22;395;48.132;11.608;2023-04-01T20:09:25;10.60;1.00
827;DHT22;395;48.132;11.608;2023-04-01T20:12:13;10.60;1.00
827;DHT22;395;48.132;11.608;2023-04-01T20:14:49;10.60;1.00
827;DHT22;395;48.132;11.608;2023-04-01T20:27:54;10.50;1.00
827;DHT22;395;48.132;11.608;2023-04-01T20:36:22;10.50;1.00
827;DHT22;395;48.132;11.608;2023-04-01T20:41:32;10.50;1.00
827;DHT22;395;48.132;11.608;2023-04-01T20:44:13;10.50;1.00
827;DHT22;395;48.132;11.608;2023-04-01T20:46:56;10.60;1.00
827;DHT22;395;48.132;11.608;2023-04-01T20:52:55;10.50;1.00
827;DHT22;395;48.132;11.608;2023-04-01T20:58:32;10.50;1.00
827;DHT22;395;48.132;11.608;2023-04-01T21:01:13;10.50;1.00
827;DHT22;395;48.132;11.608;2023-04-01T21:09:07;10.50;1.00
827;DHT22;395;48.132;11.608;2023-04-01T21:17:08;10.40;1.00
827;DHT22;395;48.132;11.608;2023-04-01T21:27:58;10.50;1.00
827;DHT22;395;48.132;11.608;2023-04-01T21:38:43;10.40;1.00
827;DHT22;395;48.132;11.608;2023-04-01T21:44:19;10.40;1.00
827;DHT22;395;48.132;11.608;2023-04-01T21:52:28;10.20;1.00
827;DHT22;395;48.132;11.608;2023-04-01T22:15:25;10.20;1.00
827;DHT22;395;48.132;11.608;2023-04-01T22:20:59;10.10;1.00
827;DHT22;395;48.132;11.608;2023-04-01T22:26:32;10.10;1.00
827;DHT22;395;48.132;11.608;2023-04-01T22:29:15;10.10;1.00
827;DHT22;395;48.132;11.608;2023-04-01T22:31:59;10.20;1.00
827;DHT22;395;48.132;11.608;2023-04-01T22:49:59;10.20;1.00
827;DHT22;395;48.132;11.608;2023-04-01T22:52:38;10.30;1.00
827;DHT22;395;48.132;11.608;2023-04-01T22:55:29;10.30;1.00
827;DHT22;395;48.132;11.608;2023-04-01T22:58:03;10.30;1.00
827;DHT22;395;48.132;11.608;2023-04-01T23:03:35;10.10;1.00
827;DHT22;395;48.132;11.608;2023-04-01T23:06:04;10.10;1.00
827;DHT22;395;48.132;11.608;2023-04-01T23:14:07;10.10;1.00
827;DHT22;395;48.132;11.608;2023-04-01T23:16:54;10.10;1.00
827;DHT22;395;48.132;11.608;2023-04-01T23:19:41;10.10;1.00
827;DHT22;395;48.132;11.608;2023-04-01T23:33:31;10.00;1.00
827;DHT22;395;48.132;11.608;2023-04-01T23:38:35;10.10;1.00
827;DHT22;395;48.132;11.608;2023-04-01T23:41:02;10.10;1.00
827;DHT22;395;48.132;11.608;2023-04-01T23:43:31;10.10;1.00
827;DHT22;395;48.132;11.608;2023-04-01T23:46:00;10.20;1.00
827;DHT22;395;48.132;11.608;2023-04-01T23:48:35;10.10;1.00
827;DHT22;395;48.132;11.608;2023-04-01T23:51:03;10.10;1.00
827;DHT22;395;48.132;11.608;2023-04-01T23:53:35;10.00;1.00
827;DHT22;395;48.132;11.608;2023-04-01T23:56:02;10.00;1.00
